sensor_id;sensor_type;location;lat;lon;timestamp;temperature;humidity
12260;DHT22;6192;47.742;9.262;2022-09-09T00:06:28;15.20;99.90
12260;DHT22;6192;47.742;9.262;2022-09-09T00:09:18;15.30;99.90
12260;DHT22;6192;47.742;9.262;2022-09-09T00:17:14;15.40;99.90
12260;DHT22;6192;47.742;9.262;2022-09-09T00:19:59;15.40;99.90
12260;DHT22;6192;47.742;9.262;2022-09-09T00:22:30;15.40;99.90
12260;DHT22;6192;47.742;9.262;2022-09-09T00:27:45;15.40;99.90
12260;DHT22;6192;47.742;9.262;2022-09-09T00:32:54;15.60;99.90
12260;DHT22;6192;47.742;9.262;2022-09-09T00:35:37;15.50;99.90
12260;DHT22;6192;47.742;9.262;2022-09-09T00:38:15;15.40;99.90
12260;DHT22;6192;47.742;9.262;2022-09-09T00:40:58;15.20;99.90
12260;DHT22;6192;47.742;9.262;2022-09-09T00:43:36;15.40;99.90
12260;DHT22;6192;47.742;9.262;2022-09-09T00:49:08;15.40;99.90
12260;DHT22;6192;47.742;9.262;2022-09-09T00:52:08;15.30;99.90
12260;DHT22;6192;47.742;9.262;2022-09-09T01:03:08;15.10;99.90
12260;DHT22;6192;47.742;9.262;2022-09-09T01:11:14;15.20;99.90
12260;DHT22;6192;47.742;9.262;2022-09-09T01:13:45;15.20;99.90
12260;DHT22;6192;47.742;9.262;2022-09-09T01:16:14;15.10;99.90
12260;DHT22;6192;47.742;9.262;2022-09-09T01:18:48;15.20;99.90
12260;DHT22;6192;47.742;9.262;2022-09-09T01:27:01;14.70;99.90
12260;DHT22;6192;47.742;9.262;2022-09-09T01:29:29;14.70;99.90
12260;DHT22;6192;47.742;9.262;2022-09-09T01:32:37;14.80;99.90
12260;DHT22;6192;47.742;9.262;2022-09-09T01:34:50;14.80;99.90
12260;DHT22;6192;47.742;9.262;2022-09-09T01:37:17;14.90;99.90
12260;DHT22;6192;47.742;9.262;2022-09-09T01:39:44;15.00;99.90
12260;DHT22;6192;47.742;9.262;2022-09-09T01:42:14;14.90;99.90
12260;DHT22;6192;47.742;9.262;2022-09-09T01:44:42;14.80;99.90
12260;DHT22;6192;47.742;9.262;2022-09-09T01:47:09;14.80;99.90
12260;DHT22;6192;47.742;9.262;2022-09-09T01:49:36;14.70;99.90
12260;DHT22;6192;47.742;9.262;2022-09-09T01:52:03;15.00;99.90
12260;DHT22;6192;47.742;9.262;2022-09-09T01:54:32;15.00;99.90
12260;DHT22;6192;47.742;9.262;2022-09-09T01:57:11;14.80;99.90
12260;DHT22;6192;47.742;9.262;2022-09-09T01:59:54;15.00;99.90
12260;DHT22;6192;47.742;9.262;2022-09-09T02:05:44;14.90;99.90
12260;DHT22;6192;47.742;9.262;2022-09-09T02:08:20;14.90;99.90
12260;DHT22;6192;47.742;9.262;2022-09-09T02:10:53;14.90;99.90
12260;DHT22;6192;47.742;9.262;2022-09-09T02:13:22;14.90;99.90
12260;DHT22;6192;47.742;9.262;2022-09-09T02:21:30;14.60;99.90
12260;DHT22;6192;47.742;9.262;2022-09-09T02:23:59;14.50;99.90
12260;DHT22;6192;47.742;9.262;2022-09-09T02:26:32;14.40;99.90
12260;DHT22;6192;47.742;9.262;2022-09-09T02:29:02;14.50;99.90
12260;DHT22;6192;47.742;9.262;2022-09-09T02:31:31;14.30;99.90
12260;DHT22;6192;47.742;9.262;2022-09-09T02:34:03;14.40;99.90
12260;DHT22;6192;47.742;9.262;2022-09-09T02:36:33;14.60;99.90
12260;DHT22;6192;47.742;9.262;2022-09-09T02:39:05;14.70;99.90
12260;DHT22;6192;47.742;9.262;2022-09-09T02:41:37;14.80;99.90
12260;DHT22;6192;47.742;9.262;2022-09-09T02:44:17;14.80;99.90
12260;DHT22;6192;47.742;9.262;2022-09-09T02:53:01;14.70;99.90
12260;DHT22;6192;47.742;9.262;2022-09-09T02:55:41;14.70;99.90
12260;DHT22;6192;47.742;9.262;2022-09-09T02:58:14;14.70;99.90
12260;DHT22;6192;47.742;9.262;2022-09-09T03:00:45;14.80;99.90
12260;DHT22;6192;47.742;9.262;2022-09-09T03:03:13;14.80;99.90
12260;DHT22;6192;47.742;9.262;2022-09-09T03:05:43;14.80;99.90
12260;DHT22;6192;47.742;9.262;2022-09-09T03:08:10;14.70;99.90
12260;DHT22;6192;47.742;9.262;2022-09-09T03:10:37;14.80;99.90
12260;DHT22;6192;47.742;9.262;2022-09-09T03:13:05;14.90;99.90
12260;DHT22;6192;47.742;9.262;2022-09-09T03:15:32;14.90;99.90
12260;DHT22;6192;47.742;9.262;2022-09-09T03:17:59;14.90;99.90
12260;DHT22;6192;47.742;9.262;2022-09-09T03:20:28;14.90;99.90
12260;DHT22;6192;47.742;9.262;2022-09-09T03:22:56;15.00;99.90
12260;DHT22;6192;47.742;9.262;2022-09-09T03:25:23;15.00;99.90
12260;DHT22;6192;47.742;9.262;2022-09-09T03:27:53;15.00;99.90
12260;DHT22;6192;47.742;9.262;2022-09-09T03:30:25;15.00;99.90
12260;DHT22;6192;47.742;9.262;2022-09-09T03:32:52;15.10;99.90
12260;DHT22;6192;47.742;9.262;2022-09-09T03:35:19;15.10;99.90
12260;DHT22;6192;47.742;9.262;2022-09-09T03:37:47;15.20;99.90
12260;DHT22;6192;47.742;9.262;2022-09-09T03:40:13;15.20;99.90
12260;DHT22;6192;47.742;9.262;2022-09-09T03:42:40;15.20;99.90
12260;DHT22;6192;47.742;9.262;2022-09-09T03:45:09;15.30;99.90
12260;DHT22;6192;47.742;9.262;2022-09-09T03:47:37;15.30;99.90
12260;DHT22;6192;47.742;9.262;2022-09-09T03:50:05;15.30;99.90
12260;DHT22;6192;47.742;9.262;2022-09-09T03:52:36;15.30;99.90
12260;DHT22;6192;47.742;9.262;2022-09-09T03:55:04;15.30;99.90
12260;DHT22;6192;47.742;9.262;2022-09-09T03:57:32;15.40;99.90
12260;DHT22;6192;47.742;9.262;2022-09-09T04:00:06;15.40;99.90
12260;DHT22;6192;47.742;9.262;2022-09-09T04:02:33;15.40;99.90
12260;DHT22;6192;47.742;9.262;2022-09-09T04:05:00;15.40;99.90
12260;DHT22;6192;47.742;9.262;2022-09-09T04:07:27;15.40;99.90
12260;DHT22;6192;47.742;9.262;2022-09-09T04:09:55;15.40;99.90
12260;DHT22;6192;47.742;9.262;2022-09-09T04:12:22;15.30;99.90
12260;DHT22;6192;47.742;9.262;2022-09-09T04:14:49;15.40;99.90
12260;DHT22;6192;47.742;9.262;2022-09-09T04:17:16;15.40;99.90
12260;DHT22;6192;47.742;9.262;2022-09-09T04:19:43;15.30;99.90
12260;DHT22;6192;47.742;9.262;2022-09-09T04:22:10;15.40;99.90
12260;DHT22;6192;47.742;9.262;2022-09-09T04:24:37;15.40;99.90
12260;DHT22;6192;47.742;9.262;2022-09-09T04:27:04;15.40;99.90
12260;DHT22;6192;47.742;9.262;2022-09-09T04:29:31;15.40;99.90
12260;DHT22;6192;47.742;9.262;2022-09-09T04:31:58;15.40;99.90
12260;DHT22;6192;47.742;9.262;2022-09-09T04:34:25;15.40;99.90
12260;DHT22;6192;47.742;9.262;2022-09-09T04:36:52;15.40;99.90
12260;DHT22;6192;47.742;9.262;2022-09-09T04:39:19;15.40;99.90
12260;DHT22;6192;47.742;9.262;2022-09-09T04:41:46;15.50;99.90
12260;DHT22;6192;47.742;9.262;2022-09-09T04:44:13;15.40;99.90
12260;DHT22;6192;47.742;9.262;2022-09-09T04:46:40;15.40;99.90
12260;DHT22;6192;47.742;9.262;2022-09-09T04:49:08;15.30;99.90
12260;DHT22;6192;47.742;9.262;2022-09-09T04:51:40;15.30;99.90
12260;DHT22;6192;47.742;9.262;2022-09-09T04:54:07;15.30;99.90
12260;DHT22;6192;47.742;9.262;2022-09-09T04:56:34;15.30;99.90
12260;DHT22;6192;47.742;9.262;2022-09-09T04:59:02;15.30;99.90
12260;DHT22;6192;47.742;9.262;2022-09-09T05:01:29;15.30;99.90
12260;DHT22;6192;47.742;9.262;2022-09-09T05:03:56;15.20;99.90
12260;DHT22;6192;47.742;9.262;2022-09-09T05:06:24;15.20;99.90
12260;DHT22;6192;47.742;9.262;2022-09-09T05:08:51;15.20;99.90
12260;DHT22;6192;47.742;9.262;2022-09-09T05:11:23;15.20;99.90
12260;DHT22;6192;47.742;9.262;2022-09-09T05:13:51;15.10;99.90
12260;DHT22;6192;47.742;9.262;2022-09-09T05:16:19;15.10;99.90
12260;DHT22;6192;47.742;9.262;2022-09-09T05:18:46;15.10;99.90
12260;DHT22;6192;47.742;9.262;2022-09-09T05:21:15;15.10;99.90
12260;DHT22;6192;47.742;9.262;2022-09-09T05:23:42;15.10;99.90
12260;DHT22;6192;47.742;9.262;2022-09-09T05:26:16;15.10;99.90
12260;DHT22;6192;47.742;9.262;2022-09-09T05:28:46;15.10;99.90
12260;DHT22;6192;47.742;9.262;2022-09-09T05:31:16;15.10;99.90
12260;DHT22;6192;47.742;9.262;2022-09-09T05:33:44;15.10;99.90
12260;DHT22;6192;47.742;9.262;2022-09-09T05:36:18;15.10;99.90
12260;DHT22;6192;47.742;9.262;2022-09-09T05:38:45;15.10;99.90
12260;DHT22;6192;47.742;9.262;2022-09-09T05:41:13;15.20;99.90
12260;DHT22;6192;47.742;9.262;2022-09-09T05:43:43;15.20;99.90
12260;DHT22;6192;47.742;9.262;2022-09-09T05:46:19;15.20;99.90
12260;DHT22;6192;47.742;9.262;2022-09-09T05:48:48;15.10;99.90
12260;DHT22;6192;47.742;9.262;2022-09-09T05:51:23;15.10;99.90
12260;DHT22;6192;47.742;9.262;2022-09-09T05:53:50;15.10;99.90
12260;DHT22;6192;47.742;9.262;2022-09-09T05:56:23;15.10;99.90
12260;DHT22;6192;47.742;9.262;2022-09-09T05:58:52;15.20;99.90
12260;DHT22;6192;47.742;9.262;2022-09-09T06:01:24;15.20;99.90
12260;DHT22;6192;47.742;9.262;2022-09-09T06:03:53;15.30;99.90
12260;DHT22;6192;47.742;9.262;2022-09-09T06:06:22;15.30;99.90
12260;DHT22;6192;47.742;9.262;2022-09-09T06:08:54;15.30;99.90
12260;DHT22;6192;47.742;9.262;2022-09-09T06:11:26;15.30;99.90
12260;DHT22;6192;47.742;9.262;2022-09-09T06:13:53;15.30;99.90
12260;DHT22;6192;47.742;9.262;2022-09-09T06:16:23;15.30;99.90
12260;DHT22;6192;47.742;9.262;2022-09-09T06:18:51;15.40;99.90
12260;DHT22;6192;47.742;9.262;2022-09-09T06:21:21;15.50;99.90
12260;DHT22;6192;47.742;9.262;2022-09-09T06:23:49;15.40;99.90
12260;DHT22;6192;47.742;9.262;2022-09-09T06:26:27;15.50;99.90
12260;DHT22;6192;47.742;9.262;2022-09-09T06:28:57;15.60;99.90
12260;DHT22;6192;47.742;9.262;2022-09-09T06:31:28;15.50;99.90
12260;DHT22;6192;47.742;9.262;2022-09-09T06:33:59;15.50;99.90
12260;DHT22;6192;47.742;9.262;2022-09-09T06:36:31;15.50;99.90
12260;DHT22;6192;47.742;9.262;2022-09-09T06:38:59;15.50;99.90
12260;DHT22;6192;47.742;9.262;2022-09-09T06:41:28;15.50;99.90
12260;DHT22;6192;47.742;9.262;2022-09-09T06:43:55;15.50;99.90
12260;DHT22;6192;47.742;9.262;2022-09-09T06:46:25;15.60;99.90
12260;DHT22;6192;47.742;9.262;2022-09-09T06:48:56;15.60;99.90
12260;DHT22;6192;47.742;9.262;2022-09-09T06:51:30;15.60;99.90
12260;DHT22;6192;47.742;9.262;2022-09-09T06:53:59;15.50;99.90
12260;DHT22;6192;47.742;9.262;2022-09-09T06:56:32;15.50;99.90
12260;DHT22;6192;47.742;9.262;2022-09-09T06:59:01;15.50;99.90
12260;DHT22;6192;47.742;9.262;2022-09-09T07:01:34;15.60;99.90
12260;DHT22;6192;47.742;9.262;2022-09-09T07:04:02;15.60;99.90
12260;DHT22;6192;47.742;9.262;2022-09-09T07:06:35;15.60;99.90
12260;DHT22;6192;47.742;9.262;2022-09-09T07:09:08;15.60;99.90
12260;DHT22;6192;47.742;9.262;2022-09-09T07:11:41;15.70;99.90
12260;DHT22;6192;47.742;9.262;2022-09-09T07:14:08;15.80;99.90
12260;DHT22;6192;47.742;9.262;2022-09-09T07:16:35;15.80;99.90
12260;DHT22;6192;47.742;9.262;2022-09-09T07:19:04;15.90;99.90
12260;DHT22;6192;47.742;9.262;2022-09-09T07:21:32;15.90;99.90
12260;DHT22;6192;47.742;9.262;2022-09-09T07:23:59;16.00;99.90
12260;DHT22;6192;47.742;9.262;2022-09-09T07:26:29;15.90;99.90
12260;DHT22;6192;47.742;9.262;2022-09-09T07:28:57;16.00;99.90
12260;DHT22;6192;47.742;9.262;2022-09-09T07:31:29;16.00;99.90
12260;DHT22;6192;47.742;9.262;2022-09-09T07:34:00;15.90;99.90
12260;DHT22;6192;47.742;9.262;2022-09-09T07:36:30;15.90;99.90
12260;DHT22;6192;47.742;9.262;2022-09-09T07:39:08;16.00;99.90
12260;DHT22;6192;47.742;9.262;2022-09-09T07:41:38;16.10;99.90
12260;DHT22;6192;47.742;9.262;2022-09-09T07:44:09;16.20;99.90
12260;DHT22;6192;47.742;9.262;2022-09-09T07:46:36;16.20;99.90
12260;DHT22;6192;47.742;9.262;2022-09-09T07:49:03;16.20;99.90
12260;DHT22;6192;47.742;9.262;2022-09-09T07:51:32;16.20;99.90
12260;DHT22;6192;47.742;9.262;2022-09-09T07:54:04;16.30;99.90
12260;DHT22;6192;47.742;9.262;2022-09-09T07:56:31;16.30;99.90
12260;DHT22;6192;47.742;9.262;2022-09-09T07:58:59;16.20;99.90
12260;DHT22;6192;47.742;9.262;2022-09-09T08:01:35;16.30;99.90
12260;DHT22;6192;47.742;9.262;2022-09-09T08:04:08;16.40;99.90
12260;DHT22;6192;47.742;9.262;2022-09-09T08:06:40;16.40;99.90
12260;DHT22;6192;47.742;9.262;2022-09-09T08:09:08;16.50;99.90
12260;DHT22;6192;47.742;9.262;2022-09-09T08:11:45;16.50;99.90
12260;DHT22;6192;47.742;9.262;2022-09-09T08:17:55;16.60;99.90
12260;DHT22;6192;47.742;9.262;2022-09-09T08:20:22;16.60;99.90
12260;DHT22;6192;47.742;9.262;2022-09-09T08:22:49;16.60;99.90
12260;DHT22;6192;47.742;9.262;2022-09-09T08:25:17;16.70;99.90
12260;DHT22;6192;47.742;9.262;2022-09-09T08:27:43;16.70;99.90
12260;DHT22;6192;47.742;9.262;2022-09-09T08:30:11;16.80;99.90
12260;DHT22;6192;47.742;9.262;2022-09-09T08:32:39;16.80;99.90
12260;DHT22;6192;47.742;9.262;2022-09-09T08:35:11;16.70;99.90
12260;DHT22;6192;47.742;9.262;2022-09-09T08:37:38;16.70;99.90
12260;DHT22;6192;47.742;9.262;2022-09-09T08:40:05;16.90;99.90
12260;DHT22;6192;47.742;9.262;2022-09-09T08:42:41;16.90;99.90
12260;DHT22;6192;47.742;9.262;2022-09-09T08:45:30;17.10;99.90
12260;DHT22;6192;47.742;9.262;2022-09-09T08:51:05;17.20;99.90
12260;DHT22;6192;47.742;9.262;2022-09-09T08:53:42;17.30;99.90
12260;DHT22;6192;47.742;9.262;2022-09-09T08:56:18;17.20;99.90
12260;DHT22;6192;47.742;9.262;2022-09-09T08:58:49;17.40;99.90
12260;DHT22;6192;47.742;9.262;2022-09-09T09:04:33;17.70;99.90
12260;DHT22;6192;47.742;9.262;2022-09-09T09:12:51;17.60;99.90
12260;DHT22;6192;47.742;9.262;2022-09-09T09:15:26;17.50;99.90
12260;DHT22;6192;47.742;9.262;2022-09-09T09:17:58;17.40;99.90
12260;DHT22;6192;47.742;9.262;2022-09-09T09:23:18;17.40;99.90
12260;DHT22;6192;47.742;9.262;2022-09-09T09:25:46;17.40;99.90
12260;DHT22;6192;47.742;9.262;2022-09-09T09:28:16;17.40;99.90
12260;DHT22;6192;47.742;9.262;2022-09-09T09:35:56;17.70;99.90
12260;DHT22;6192;47.742;9.262;2022-09-09T09:38:26;17.70;99.90
12260;DHT22;6192;47.742;9.262;2022-09-09T09:41:14;17.70;99.90
12260;DHT22;6192;47.742;9.262;2022-09-09T09:43:41;17.60;99.90
12260;DHT22;6192;47.742;9.262;2022-09-09T09:46:20;17.60;99.90
12260;DHT22;6192;47.742;9.262;2022-09-09T09:49:04;17.70;99.90
12260;DHT22;6192;47.742;9.262;2022-09-09T09:51:33;17.80;99.90
12260;DHT22;6192;47.742;9.262;2022-09-09T09:54:18;17.40;99.90
12260;DHT22;6192;47.742;9.262;2022-09-09T09:56:49;17.40;99.90
12260;DHT22;6192;47.742;9.262;2022-09-09T09:59:32;17.50;99.90
12260;DHT22;6192;47.742;9.262;2022-09-09T10:02:20;17.60;99.90
12260;DHT22;6192;47.742;9.262;2022-09-09T10:04:47;17.70;99.90
12260;DHT22;6192;47.742;9.262;2022-09-09T10:07:20;17.60;99.90
12260;DHT22;6192;47.742;9.262;2022-09-09T10:09:54;17.60;99.90
12260;DHT22;6192;47.742;9.262;2022-09-09T10:12:33;17.70;99.90
12260;DHT22;6192;47.742;9.262;2022-09-09T10:20:57;19.20;99.90
12260;DHT22;6192;47.742;9.262;2022-09-09T10:35:09;18.80;99.90
12260;DHT22;6192;47.742;9.262;2022-09-09T10:37:57;18.90;99.90
12260;DHT22;6192;47.742;9.262;2022-09-09T10:51:49;18.90;99.90
12260;DHT22;6192;47.742;9.262;2022-09-09T10:56:55;18.80;99.90
12260;DHT22;6192;47.742;9.262;2022-09-09T10:59:30;19.10;99.90
12260;DHT22;6192;47.742;9.262;2022-09-09T11:02:17;19.40;99.90
12260;DHT22;6192;47.742;9.262;2022-09-09T11:04:55;19.20;99.90
12260;DHT22;6192;47.742;9.262;2022-09-09T11:12:45;19.00;99.90
12260;DHT22;6192;47.742;9.262;2022-09-09T11:15:22;18.80;99.90
12260;DHT22;6192;47.742;9.262;2022-09-09T11:17:53;18.70;99.90
12260;DHT22;6192;47.742;9.262;2022-09-09T11:20:23;18.80;99.90
12260;DHT22;6192;47.742;9.262;2022-09-09T11:23:16;18.80;99.90
12260;DHT22;6192;47.742;9.262;2022-09-09T11:25:52;18.60;99.90
12260;DHT22;6192;47.742;9.262;2022-09-09T11:31:44;18.50;99.90
12260;DHT22;6192;47.742;9.262;2022-09-09T11:37:14;18.50;99.90
12260;DHT22;6192;47.742;9.262;2022-09-09T11:40:09;18.40;99.90
12260;DHT22;6192;47.742;9.262;2022-09-09T11:42:38;18.30;99.90
12260;DHT22;6192;47.742;9.262;2022-09-09T11:45:30;18.20;99.90
12260;DHT22;6192;47.742;9.262;2022-09-09T11:47:58;18.20;99.90
12260;DHT22;6192;47.742;9.262;2022-09-09T11:53:18;18.20;99.90
12260;DHT22;6192;47.742;9.262;2022-09-09T11:56:05;18.40;99.90
12260;DHT22;6192;47.742;9.262;2022-09-09T11:58:44;18.40;99.90
12260;DHT22;6192;47.742;9.262;2022-09-09T12:17:20;19.70;97.10
12260;DHT22;6192;47.742;9.262;2022-09-09T12:19:47;19.80;99.90
12260;DHT22;6192;47.742;9.262;2022-09-09T12:22:51;19.90;98.90
12260;DHT22;6192;47.742;9.262;2022-09-09T12:28:15;20.60;95.60
12260;DHT22;6192;47.742;9.262;2022-09-09T12:33:18;21.00;93.10
12260;DHT22;6192;47.742;9.262;2022-09-09T12:35:56;21.10;95.30
12260;DHT22;6192;47.742;9.262;2022-09-09T12:38:36;21.70;96.70
12260;DHT22;6192;47.742;9.262;2022-09-09T12:41:03;21.40;94.00
12260;DHT22;6192;47.742;9.262;2022-09-09T12:43:31;21.40;95.90
12260;DHT22;6192;47.742;9.262;2022-09-09T12:46:07;21.70;94.90
12260;DHT22;6192;47.742;9.262;2022-09-09T12:48:41;21.70;95.80
12260;DHT22;6192;47.742;9.262;2022-09-09T12:51:24;22.10;95.80
12260;DHT22;6192;47.742;9.262;2022-09-09T12:53:52;22.40;95.60
12260;DHT22;6192;47.742;9.262;2022-09-09T12:56:22;21.80;92.00
12260;DHT22;6192;47.742;9.262;2022-09-09T12:58:52;21.60;92.40
12260;DHT22;6192;47.742;9.262;2022-09-09T13:01:27;21.70;92.20
12260;DHT22;6192;47.742;9.262;2022-09-09T13:03:55;22.20;94.50
12260;DHT22;6192;47.742;9.262;2022-09-09T13:08:57;22.90;92.20
12260;DHT22;6192;47.742;9.262;2022-09-09T13:11:50;22.80;91.20
12260;DHT22;6192;47.742;9.262;2022-09-09T13:14:22;22.70;92.10
12260;DHT22;6192;47.742;9.262;2022-09-09T13:16:56;22.40;91.60
12260;DHT22;6192;47.742;9.262;2022-09-09T13:19:24;22.50;92.90
12260;DHT22;6192;47.742;9.262;2022-09-09T13:21:55;22.80;91.10
12260;DHT22;6192;47.742;9.262;2022-09-09T13:24:32;22.90;90.50
12260;DHT22;6192;47.742;9.262;2022-09-09T13:27:02;22.40;87.90
12260;DHT22;6192;47.742;9.262;2022-09-09T13:29:31;22.70;89.10
12260;DHT22;6192;47.742;9.262;2022-09-09T13:32:06;22.70;85.30
12260;DHT22;6192;47.742;9.262;2022-09-09T13:34:35;22.40;86.60
12260;DHT22;6192;47.742;9.262;2022-09-09T13:37:04;22.60;89.90
12260;DHT22;6192;47.742;9.262;2022-09-09T13:39:34;23.00;90.30
12260;DHT22;6192;47.742;9.262;2022-09-09T13:42:02;23.00;89.70
12260;DHT22;6192;47.742;9.262;2022-09-09T13:44:34;23.20;91.10
12260;DHT22;6192;47.742;9.262;2022-09-09T13:49:41;22.80;87.30
12260;DHT22;6192;47.742;9.262;2022-09-09T13:52:12;22.90;89.40
12260;DHT22;6192;47.742;9.262;2022-09-09T13:54:41;22.40;90.60
12260;DHT22;6192;47.742;9.262;2022-09-09T13:57:19;22.60;90.90
12260;DHT22;6192;47.742;9.262;2022-09-09T13:59:47;22.30;91.20
12260;DHT22;6192;47.742;9.262;2022-09-09T14:02:30;22.10;91.90
12260;DHT22;6192;47.742;9.262;2022-09-09T14:05:00;21.80;90.50
12260;DHT22;6192;47.742;9.262;2022-09-09T14:07:27;21.70;92.00
12260;DHT22;6192;47.742;9.262;2022-09-09T14:09:58;21.90;93.00
12260;DHT22;6192;47.742;9.262;2022-09-09T14:12:27;22.20;93.20
12260;DHT22;6192;47.742;9.262;2022-09-09T14:14:56;23.00;92.90
12260;DHT22;6192;47.742;9.262;2022-09-09T14:17:23;22.80;91.80
12260;DHT22;6192;47.742;9.262;2022-09-09T14:19:51;22.30;91.20
12260;DHT22;6192;47.742;9.262;2022-09-09T14:22:18;22.00;91.40
12260;DHT22;6192;47.742;9.262;2022-09-09T14:24:45;22.10;90.80
12260;DHT22;6192;47.742;9.262;2022-09-09T14:27:13;22.10;92.40
12260;DHT22;6192;47.742;9.262;2022-09-09T14:29:40;22.40;92.50
12260;DHT22;6192;47.742;9.262;2022-09-09T14:32:06;22.60;92.90
12260;DHT22;6192;47.742;9.262;2022-09-09T14:34:38;22.40;92.50
12260;DHT22;6192;47.742;9.262;2022-09-09T14:37:05;21.90;93.20
12260;DHT22;6192;47.742;9.262;2022-09-09T14:39:32;22.00;93.10
12260;DHT22;6192;47.742;9.262;2022-09-09T14:41:59;21.90;94.10
12260;DHT22;6192;47.742;9.262;2022-09-09T14:44:26;21.70;95.00
12260;DHT22;6192;47.742;9.262;2022-09-09T14:46:55;21.70;95.50
12260;DHT22;6192;47.742;9.262;2022-09-09T14:49:22;21.40;95.90
12260;DHT22;6192;47.742;9.262;2022-09-09T14:51:49;21.40;95.20
12260;DHT22;6192;47.742;9.262;2022-09-09T14:54:15;21.40;96.00
12260;DHT22;6192;47.742;9.262;2022-09-09T14:56:43;21.10;95.90
12260;DHT22;6192;47.742;9.262;2022-09-09T14:59:10;20.80;97.20
12260;DHT22;6192;47.742;9.262;2022-09-09T15:01:37;20.80;97.40
12260;DHT22;6192;47.742;9.262;2022-09-09T15:04:05;20.70;98.30
12260;DHT22;6192;47.742;9.262;2022-09-09T15:06:34;20.50;98.00
12260;DHT22;6192;47.742;9.262;2022-09-09T15:09:04;20.50;98.40
12260;DHT22;6192;47.742;9.262;2022-09-09T15:11:34;20.50;98.70
12260;DHT22;6192;47.742;9.262;2022-09-09T15:14:05;20.40;99.00
12260;DHT22;6192;47.742;9.262;2022-09-09T15:16:33;20.10;99.90
12260;DHT22;6192;47.742;9.262;2022-09-09T15:19:01;20.40;99.90
12260;DHT22;6192;47.742;9.262;2022-09-09T15:21:31;20.80;99.90
12260;DHT22;6192;47.742;9.262;2022-09-09T15:23:59;20.90;99.80
12260;DHT22;6192;47.742;9.262;2022-09-09T15:26:26;20.80;99.90
12260;DHT22;6192;47.742;9.262;2022-09-09T15:28:54;20.90;99.90
12260;DHT22;6192;47.742;9.262;2022-09-09T15:31:23;21.00;99.00
12260;DHT22;6192;47.742;9.262;2022-09-09T15:33:55;21.20;99.30
12260;DHT22;6192;47.742;9.262;2022-09-09T15:36:33;21.30;98.40
12260;DHT22;6192;47.742;9.262;2022-09-09T15:39:00;21.20;98.20
12260;DHT22;6192;47.742;9.262;2022-09-09T15:41:28;21.10;98.50
12260;DHT22;6192;47.742;9.262;2022-09-09T15:43:56;20.80;98.00
12260;DHT22;6192;47.742;9.262;2022-09-09T15:46:33;20.70;98.90
12260;DHT22;6192;47.742;9.262;2022-09-09T15:49:27;20.60;99.00
12260;DHT22;6192;47.742;9.262;2022-09-09T15:51:56;20.50;99.50
12260;DHT22;6192;47.742;9.262;2022-09-09T15:54:35;20.50;99.50
12260;DHT22;6192;47.742;9.262;2022-09-09T15:57:04;20.60;99.80
12260;DHT22;6192;47.742;9.262;2022-09-09T15:59:32;20.50;98.80
12260;DHT22;6192;47.742;9.262;2022-09-09T16:02:00;20.40;98.70
12260;DHT22;6192;47.742;9.262;2022-09-09T16:04:28;20.50;99.80
12260;DHT22;6192;47.742;9.262;2022-09-09T16:07:03;20.50;99.50
12260;DHT22;6192;47.742;9.262;2022-09-09T16:09:33;20.50;99.90
12260;DHT22;6192;47.742;9.262;2022-09-09T16:12:01;20.40;99.90
12260;DHT22;6192;47.742;9.262;2022-09-09T16:14:29;20.40;99.50
12260;DHT22;6192;47.742;9.262;2022-09-09T16:17:00;20.30;97.30
12260;DHT22;6192;47.742;9.262;2022-09-09T16:19:27;20.30;96.60
12260;DHT22;6192;47.742;9.262;2022-09-09T16:21:54;20.30;97.60
12260;DHT22;6192;47.742;9.262;2022-09-09T16:24:21;20.30;99.00
12260;DHT22;6192;47.742;9.262;2022-09-09T16:26:50;20.20;99.30
12260;DHT22;6192;47.742;9.262;2022-09-09T16:29:18;20.20;99.10
12260;DHT22;6192;47.742;9.262;2022-09-09T16:31:46;20.10;99.60
12260;DHT22;6192;47.742;9.262;2022-09-09T16:34:14;20.10;99.40
12260;DHT22;6192;47.742;9.262;2022-09-09T16:36:43;20.10;97.70
12260;DHT22;6192;47.742;9.262;2022-09-09T16:39:12;20.10;99.00
12260;DHT22;6192;47.742;9.262;2022-09-09T16:41:40;19.90;99.90
12260;DHT22;6192;47.742;9.262;2022-09-09T16:44:09;19.80;99.90
12260;DHT22;6192;47.742;9.262;2022-09-09T16:46:41;19.80;99.90
12260;DHT22;6192;47.742;9.262;2022-09-09T16:49:10;19.90;99.70
12260;DHT22;6192;47.742;9.262;2022-09-09T16:51:43;19.90;99.20
12260;DHT22;6192;47.742;9.262;2022-09-09T16:54:11;19.90;98.00
12260;DHT22;6192;47.742;9.262;2022-09-09T16:56:40;19.80;99.50
12260;DHT22;6192;47.742;9.262;2022-09-09T16:59:19;19.80;96.80
12260;DHT22;6192;47.742;9.262;2022-09-09T17:01:49;19.70;94.90
12260;DHT22;6192;47.742;9.262;2022-09-09T17:04:27;19.70;93.30
12260;DHT22;6192;47.742;9.262;2022-09-09T17:06:55;19.60;91.80
12260;DHT22;6192;47.742;9.262;2022-09-09T17:09:25;19.60;93.10
12260;DHT22;6192;47.742;9.262;2022-09-09T17:11:55;19.60;91.60
12260;DHT22;6192;47.742;9.262;2022-09-09T17:14:22;19.40;90.50
12260;DHT22;6192;47.742;9.262;2022-09-09T17:16:49;19.40;91.80
12260;DHT22;6192;47.742;9.262;2022-09-09T17:19:16;19.40;94.30
12260;DHT22;6192;47.742;9.262;2022-09-09T17:21:43;19.20;96.10
12260;DHT22;6192;47.742;9.262;2022-09-09T17:24:30;19.00;97.00
12260;DHT22;6192;47.742;9.262;2022-09-09T17:26:57;18.70;96.50
12260;DHT22;6192;47.742;9.262;2022-09-09T17:29:24;18.50;97.70
12260;DHT22;6192;47.742;9.262;2022-09-09T17:31:52;18.60;94.80
12260;DHT22;6192;47.742;9.262;2022-09-09T17:34:19;18.80;93.50
12260;DHT22;6192;47.742;9.262;2022-09-09T17:36:46;18.70;94.00
12260;DHT22;6192;47.742;9.262;2022-09-09T17:39:13;18.60;94.60
12260;DHT22;6192;47.742;9.262;2022-09-09T17:41:40;18.50;97.50
12260;DHT22;6192;47.742;9.262;2022-09-09T17:44:08;18.50;98.30
12260;DHT22;6192;47.742;9.262;2022-09-09T17:46:39;18.40;98.90
12260;DHT22;6192;47.742;9.262;2022-09-09T17:49:13;18.40;98.90
12260;DHT22;6192;47.742;9.262;2022-09-09T17:51:41;18.30;98.90
12260;DHT22;6192;47.742;9.262;2022-09-09T17:54:17;18.30;99.40
12260;DHT22;6192;47.742;9.262;2022-09-09T17:56:45;18.30;99.60
12260;DHT22;6192;47.742;9.262;2022-09-09T17:59:13;18.10;99.70
12260;DHT22;6192;47.742;9.262;2022-09-09T18:01:43;18.20;99.90
12260;DHT22;6192;47.742;9.262;2022-09-09T18:04:12;18.10;99.90
12260;DHT22;6192;47.742;9.262;2022-09-09T18:06:43;18.00;99.90
12260;DHT22;6192;47.742;9.262;2022-09-09T18:09:16;18.10;99.90
12260;DHT22;6192;47.742;9.262;2022-09-09T18:11:46;18.10;99.90
12260;DHT22;6192;47.742;9.262;2022-09-09T18:14:16;17.90;99.90
12260;DHT22;6192;47.742;9.262;2022-09-09T18:16:44;17.90;99.90
12260;DHT22;6192;47.742;9.262;2022-09-09T18:19:13;17.50;99.90
12260;DHT22;6192;47.742;9.262;2022-09-09T18:21:41;17.00;99.90
12260;DHT22;6192;47.742;9.262;2022-09-09T18:24:09;16.90;99.90
12260;DHT22;6192;47.742;9.262;2022-09-09T18:26:38;16.30;99.90
12260;DHT22;6192;47.742;9.262;2022-09-09T18:29:08;16.20;99.90
12260;DHT22;6192;47.742;9.262;2022-09-09T18:31:36;16.00;99.90
12260;DHT22;6192;47.742;9.262;2022-09-09T18:34:05;16.00;99.90
12260;DHT22;6192;47.742;9.262;2022-09-09T18:36:36;16.00;99.90
12260;DHT22;6192;47.742;9.262;2022-09-09T18:39:05;16.10;99.90